Hovedside
METAR-TAF:

METAR-TAF

Lufthavner :

Foz do Iguaçu, Paraná, Brasil

breddegrad: 25-31S, lengdegrad: 054-35W, høyde over havet: 180 m

Gjeldene værobservasjon

Denne rapporten ble laget for 21 minutter siden, klokken 01:00 UTC
Vind 3 kt fra Sør
Temperatur 21°C
Luftfuktighet 64%
Trykk 1009 hPa
Sikt 10 km eller mer
ingen skyer under 1500 m og ingen bygeskyer

METAR: SBFI 170100Z 17003KT CAVOK 21/14 Q1009

Tid: 23:21 (01:21 UTC)

Varsel

Denne rapporten ble laget for 2 timer og 51 minutter siden, klokken 22:30 UTC
Varsel gyldig fra 17. klokken 00 UTC til 17. klokken 24 UTC
Vind 5 kt fra Sør
Sikt 10 km eller mer
ingen skyer under 1500 m og ingen bygeskyer
Blir
fra 17. klokken 06 UTC til 17. klokken 08 UTC
Vind 7 kt fra Øst-sørøst

TAF: SBFI 162230Z 1700/1724 17005KT CAVOK TN18/1709Z TX31/1718Z BECMG 1706/1708 11007KT RMK PEB

Værobservasjoner og værvarsel for over 4000 flyplasser (METAR- og TAF-rapporter).

Tilgjengelige stasjoner er representert av de røde og gule prikkene på kartet.

Hold musepekeren over prikken for å se navnet på stasjonen.

Klikk så for å se værobservasjoner og -varsler.

For å forandre kartet kan du klikke på den grønne knappen med svart kryss for å zoome inn, på den grønne knappen med strek for å zoome ut, eller på de grønne pilene for å se tilstøtende kart.


METAR-TAF: